createdAt,value
2023-04-22T00:02:08.007Z,98761.81
2023-04-22T00:04:55.342Z,98757.59
2023-04-22T00:07:43.347Z,98756.63
2023-04-22T00:10:30.572Z,98744.47
2023-04-22T00:13:17.819Z,98767.94
2023-04-22T00:16:05.288Z,98764.56
2023-04-22T00:18:52.383Z,98759.03
2023-04-22T00:21:39.456Z,98750.00
2023-04-22T00:24:27.017Z,98747.97
2023-04-22T00:27:14.130Z,98753.44
2023-04-22T00:30:01.268Z,98746.16
2023-04-22T00:32:49.288Z,98762.16
2023-04-22T00:35:36.473Z,98747.41
2023-04-22T00:38:23.552Z,98755.91
2023-04-22T00:41:11.581Z,98750.84
2023-04-22T00:44:00.482Z,98748.78
2023-04-22T00:46:49.015Z,98751.69
2023-04-22T00:49:36.680Z,98757.44
2023-04-22T00:52:23.796Z,98757.72
2023-04-22T00:55:11.930Z,98752.56
2023-04-22T00:58:01.293Z,98749.69
2023-04-22T01:00:48.447Z,98751.22
2023-04-22T01:03:39.078Z,98741.94
2023-04-22T01:06:29.826Z,98750.88
2023-04-22T01:09:18.779Z,98742.88
2023-04-22T01:12:06.545Z,98741.78
2023-04-22T01:14:53.939Z,98758.03
2023-04-22T01:17:41.551Z,98747.56
2023-04-22T01:20:29.747Z,98760.28
2023-04-22T01:23:21.467Z,98755.22
2023-04-22T01:26:08.727Z,98763.59
2023-04-22T01:28:56.186Z,98760.00
2023-04-22T01:31:43.929Z,98760.25
2023-04-22T01:34:32.409Z,98766.91
2023-04-22T01:37:19.619Z,98763.91
2023-04-22T01:40:09.323Z,98755.63
2023-04-22T01:42:56.698Z,98763.00
2023-04-22T01:45:43.834Z,98764.63
2023-04-22T01:48:30.957Z,98774.66
2023-04-22T01:51:20.945Z,98764.63
2023-04-22T01:54:09.387Z,98770.94
2023-04-22T01:56:58.706Z,98764.88
2023-04-22T01:59:45.865Z,98765.97
2023-04-22T02:02:33.038Z,98773.72
2023-04-22T02:05:20.194Z,98762.16
2023-04-22T02:08:07.375Z,98767.34
2023-04-22T02:10:54.598Z,98762.78
2023-04-22T02:13:41.812Z,98759.75
2023-04-22T02:16:29.187Z,98757.94
2023-04-22T02:19:16.355Z,98750.56
2023-04-22T02:22:03.719Z,98765.22
2023-04-22T02:24:50.811Z,98761.38
2023-04-22T02:27:38.660Z,98765.75
2023-04-22T02:30:25.836Z,98764.66
2023-04-22T02:33:13.021Z,98773.22
2023-04-22T02:36:00.058Z,98761.50
2023-04-22T02:38:47.172Z,98766.59
2023-04-22T02:41:34.190Z,98774.69
2023-04-22T02:44:21.283Z,98778.19
2023-04-22T02:47:08.423Z,98773.72
2023-04-22T02:49:55.626Z,98768.88
2023-04-22T02:52:42.630Z,98779.63
2023-04-22T02:55:29.852Z,98774.56
2023-04-22T02:58:17.000Z,98777.47
2023-04-22T03:01:04.279Z,98775.06
2023-04-22T03:03:51.559Z,98766.84
2023-04-22T03:06:38.765Z,98777.00
2023-04-22T03:09:25.889Z,98772.50
2023-04-22T03:12:12.976Z,98769.38
2023-04-22T03:15:00.065Z,98760.69
2023-04-22T03:17:47.255Z,98772.28
2023-04-22T03:20:35.523Z,98774.44
2023-04-22T03:23:22.805Z,98782.28
2023-04-22T03:26:09.856Z,98775.53
2023-04-22T03:28:56.936Z,98770.81
2023-04-22T03:31:44.062Z,98776.50
2023-04-22T03:34:31.305Z,98774.41
2023-04-22T03:37:18.357Z,98778.06
2023-04-22T03:40:06.196Z,98770.06
2023-04-22T03:42:53.258Z,98780.31
2023-04-22T03:45:40.541Z,98786.75
2023-04-22T03:48:30.084Z,98787.25
2023-04-22T03:51:17.270Z,98797.03
2023-04-22T03:54:04.414Z,98809.22
2023-04-22T03:56:51.510Z,98805.09
2023-04-22T03:59:38.753Z,98804.38
2023-04-22T04:02:26.239Z,98807.75
2023-04-22T04:05:14.088Z,98797.59
2023-04-22T04:08:01.335Z,98813.19
2023-04-22T04:10:48.408Z,98820.09
2023-04-22T04:13:35.509Z,98802.56
2023-04-22T04:16:22.831Z,98805.22
2023-04-22T04:19:10.329Z,98808.72
2023-04-22T04:21:57.475Z,98810.06
2023-04-22T04:24:44.785Z,98803.91
2023-04-22T04:27:31.898Z,98796.41
2023-04-22T04:30:21.572Z,98804.50
2023-04-22T04:33:08.835Z,98800.75
2023-04-22T04:35:56.037Z,98793.88
2023-04-22T04:38:43.240Z,98819.25
2023-04-22T04:41:31.953Z,98793.94
2023-04-22T04:44:21.041Z,98807.38
2023-04-22T04:47:08.156Z,98822.00
2023-04-22T04:49:55.235Z,98824.66
2023-04-22T04:52:42.512Z,98830.03
2023-04-22T04:55:29.600Z,98845.59
2023-04-22T04:58:16.786Z,98838.47
2023-04-22T05:01:03.867Z,98840.16
2023-04-22T05:03:51.153Z,98844.28
2023-04-22T05:06:38.316Z,98834.59
2023-04-22T05:09:25.624Z,98830.97
2023-04-22T05:12:12.686Z,98827.75
2023-04-22T05:14:59.812Z,98829.19
2023-04-22T05:17:46.984Z,98826.66
2023-04-22T05:20:36.150Z,98815.19
2023-04-22T05:23:23.436Z,98824.50
2023-04-22T05:26:10.610Z,98829.22
2023-04-22T05:28:57.721Z,98842.38
2023-04-22T05:31:44.891Z,98827.88
2023-04-22T05:34:31.937Z,98834.66
2023-04-22T05:37:19.064Z,98837.91
2023-04-22T05:40:06.970Z,98830.03
2023-04-22T05:42:54.075Z,98839.09
2023-04-22T05:45:41.271Z,98841.41
2023-04-22T05:48:28.404Z,98842.22
2023-04-22T05:51:15.481Z,98827.81
2023-04-22T05:54:02.528Z,98841.59
2023-04-22T05:56:49.638Z,98848.53
2023-04-22T05:59:36.717Z,98847.66
2023-04-22T06:02:23.978Z,98859.88
2023-04-22T06:05:11.326Z,98846.50
2023-04-22T06:07:58.454Z,98842.94
2023-04-22T06:10:45.922Z,98830.63
2023-04-22T06:13:32.984Z,98813.69
2023-04-22T06:16:20.261Z,98817.38
2023-04-22T06:19:10.397Z,98791.34
2023-04-22T06:21:57.509Z,98801.91
2023-04-22T06:24:46.289Z,98798.47
2023-04-22T06:27:34.037Z,98791.28
2023-04-22T06:30:21.289Z,98797.28
2023-04-22T06:33:08.388Z,98797.50
2023-04-22T06:35:55.655Z,98799.00
2023-04-22T06:38:42.762Z,98792.75
2023-04-22T06:41:30.714Z,98793.19
2023-04-22T06:44:17.795Z,98784.06
2023-04-22T06:47:05.296Z,98783.44
2023-04-22T06:49:52.413Z,98786.00
2023-04-22T06:52:39.478Z,98777.41
2023-04-22T06:55:26.654Z,98774.34
2023-04-22T06:58:13.680Z,98780.56
2023-04-22T07:01:00.839Z,98780.34
2023-04-22T07:03:48.101Z,98768.91
2023-04-22T07:06:35.435Z,98781.94
2023-04-22T07:09:22.537Z,98778.28
2023-04-22T07:12:09.771Z,98778.09
2023-04-22T07:14:57.187Z,98774.78
2023-04-22T07:17:44.375Z,98775.44
2023-04-22T07:20:31.582Z,98759.47
2023-04-22T07:23:18.914Z,98761.56
2023-04-22T07:26:06.362Z,98768.34
2023-04-22T07:28:53.404Z,98754.88
2023-04-22T07:31:40.558Z,98761.69
2023-04-22T07:34:27.771Z,98759.19
2023-04-22T07:37:14.800Z,98753.00
2023-04-22T07:40:01.862Z,98749.38
2023-04-22T07:42:48.910Z,98754.69
2023-04-22T07:45:36.089Z,98756.97
2023-04-22T07:48:23.370Z,98738.88
2023-04-22T07:51:10.614Z,98752.91
2023-04-22T07:53:57.690Z,98748.16
2023-04-22T07:56:44.717Z,98747.72
2023-04-22T07:59:31.825Z,98742.03
2023-04-22T08:02:19.034Z,98747.06
2023-04-22T08:05:06.842Z,98745.25
2023-04-22T08:07:54.081Z,98744.41
2023-04-22T08:10:44.107Z,98744.91
2023-04-22T08:13:31.260Z,98741.91
2023-04-22T08:16:19.136Z,98735.50
2023-04-22T08:19:06.327Z,98744.28
2023-04-22T08:21:53.659Z,98743.88
2023-04-22T08:24:40.950Z,98740.31
2023-04-22T08:27:28.058Z,98730.06
2023-04-22T08:30:15.238Z,98724.44
2023-04-22T08:33:03.012Z,98729.03
2023-04-22T08:35:50.475Z,98733.50
2023-04-22T08:38:37.693Z,98730.75
2023-04-22T08:41:24.895Z,98735.69
2023-04-22T08:44:13.160Z,98724.50
2023-04-22T08:47:02.666Z,98731.03
2023-04-22T08:49:51.704Z,98724.56
2023-04-22T08:52:38.898Z,98721.66
2023-04-22T08:55:26.836Z,98710.03
2023-04-22T08:58:14.035Z,98716.63
2023-04-22T09:01:02.324Z,98707.38
2023-04-22T09:03:50.228Z,98718.75
2023-04-22T09:06:38.906Z,98717.00
2023-04-22T09:09:26.967Z,98724.50
2023-04-22T09:12:14.081Z,98703.13
2023-04-22T09:15:01.161Z,98714.78
2023-04-22T09:17:52.055Z,98711.28
2023-04-22T09:20:42.625Z,98706.78
2023-04-22T09:23:29.715Z,98695.44
2023-04-22T09:26:23.644Z,98699.09
2023-04-22T09:29:15.916Z,98697.25
2023-04-22T09:32:11.405Z,98695.66
2023-04-22T09:34:58.540Z,98691.41
2023-04-22T09:37:52.401Z,98680.56
2023-04-22T09:40:43.679Z,98697.47
2023-04-22T09:43:32.845Z,98683.44
2023-04-22T09:46:19.965Z,98678.03
2023-04-22T09:49:07.189Z,98663.06
2023-04-22T09:51:58.318Z,98660.56
2023-04-22T09:54:54.757Z,98658.19
2023-04-22T09:57:43.452Z,98648.09
2023-04-22T10:00:31.462Z,98663.78
2023-04-22T10:03:19.212Z,98651.28
2023-04-22T10:06:07.283Z,98657.84
2023-04-22T10:08:55.026Z,98656.97
2023-04-22T10:11:42.139Z,98656.50
2023-04-22T10:14:29.510Z,98654.88
2023-04-22T10:17:19.312Z,98640.47
2023-04-22T10:20:16.469Z,98647.09
2023-04-22T10:23:13.530Z,98632.38
2023-04-22T10:26:00.780Z,98640.13
2023-04-22T10:28:48.049Z,98644.00
2023-04-22T10:31:38.843Z,98647.13
2023-04-22T10:34:26.105Z,98636.81
2023-04-22T10:37:14.894Z,98637.63
2023-04-22T10:40:16.736Z,98627.81
2023-04-22T10:43:04.758Z,98627.06
2023-04-22T10:45:51.966Z,98619.09
2023-04-22T10:48:57.224Z,98612.78
2023-04-22T10:51:52.311Z,98607.31
2023-04-22T10:54:39.355Z,98616.03
2023-04-22T10:57:41.822Z,98618.53
2023-04-22T11:00:53.276Z,98613.53
2023-04-22T11:03:41.294Z,98596.56
2023-04-22T11:06:30.465Z,98571.16
2023-04-22T11:09:17.651Z,98598.41
2023-04-22T11:12:35.886Z,98598.63
2023-04-22T11:15:23.184Z,98586.66
2023-04-22T11:18:14.332Z,98596.56
2023-04-22T11:21:09.480Z,98597.47
2023-04-22T11:23:57.673Z,98596.31
2023-04-22T11:26:44.741Z,98584.97
2023-04-22T11:29:31.869Z,98585.34
2023-04-22T11:32:21.569Z,98576.41
2023-04-22T11:35:13.988Z,98585.28
2023-04-22T11:38:03.434Z,98581.34
2023-04-22T11:40:50.439Z,98579.59
2023-04-22T11:43:47.058Z,98580.28
2023-04-22T11:46:39.656Z,98573.41
2023-04-22T11:49:28.003Z,98572.19
2023-04-22T11:52:15.046Z,98578.81
2023-04-22T11:55:02.093Z,98579.41
2023-04-22T11:57:57.128Z,98557.25
2023-04-22T12:00:47.233Z,98567.09
2023-04-22T12:03:34.902Z,98570.47
2023-04-22T12:06:22.283Z,98560.94
2023-04-22T12:09:09.855Z,98559.50
2023-04-22T12:11:57.793Z,98554.91
2023-04-22T12:14:46.396Z,98559.44
2023-04-22T12:17:33.529Z,98566.19
2023-04-22T12:20:21.849Z,98563.84
2023-04-22T12:23:16.852Z,98559.41
2023-04-22T12:26:04.014Z,98544.28
2023-04-22T12:28:51.555Z,98546.78
2023-04-22T12:31:38.835Z,98549.38
2023-04-22T12:34:26.152Z,98546.53
2023-04-22T12:37:13.435Z,98543.25
2023-04-22T12:40:00.618Z,98529.69
2023-04-22T12:42:47.765Z,98528.09
2023-04-22T12:45:35.153Z,98521.50
2023-04-22T12:48:22.374Z,98518.16
2023-04-22T12:51:09.490Z,98517.09
2023-04-22T12:53:56.651Z,98519.56
2023-04-22T12:56:45.242Z,98500.47
2023-04-22T12:59:32.333Z,98508.06
2023-04-22T13:02:19.487Z,98509.41
2023-04-22T13:05:06.719Z,98519.34
2023-04-22T13:08:05.736Z,98508.47
2023-04-22T13:10:54.032Z,98503.94
2023-04-22T13:13:41.123Z,98495.03
2023-04-22T13:16:28.270Z,98497.59
2023-04-22T13:19:15.790Z,98495.13
2023-04-22T13:22:03.049Z,98493.44
2023-04-22T13:24:50.297Z,98494.03
2023-04-22T13:27:37.576Z,98479.09
2023-04-22T13:30:24.717Z,98478.22
2023-04-22T13:33:11.821Z,98470.53
2023-04-22T13:35:58.981Z,98477.88
2023-04-22T13:38:46.078Z,98479.88
2023-04-22T13:41:33.201Z,98480.13
2023-04-22T13:44:20.602Z,98481.22
2023-04-22T13:47:07.689Z,98468.34
2023-04-22T13:49:54.737Z,98470.25
2023-04-22T13:52:42.723Z,98476.31
2023-04-22T13:55:29.809Z,98470.28
2023-04-22T13:58:16.910Z,98465.28
2023-04-22T14:01:04.526Z,98464.88
2023-04-22T14:03:53.023Z,98461.75
2023-04-22T14:06:40.256Z,98450.41
2023-04-22T14:09:27.395Z,98464.72
2023-04-22T14:12:14.579Z,98459.84
2023-04-22T14:15:01.648Z,98458.97
2023-04-22T14:17:49.839Z,98444.88
2023-04-22T14:20:37.476Z,98447.66
2023-04-22T14:23:24.650Z,98442.69
2023-04-22T14:26:13.207Z,98451.31
2023-04-22T14:29:00.358Z,98449.16
2023-04-22T14:31:47.470Z,98451.41
2023-04-22T14:34:34.576Z,98441.41
2023-04-22T14:37:22.746Z,98438.88
2023-04-22T14:40:12.508Z,98432.84
2023-04-22T14:43:01.672Z,98436.34
2023-04-22T14:45:48.898Z,98422.72
2023-04-22T14:48:36.116Z,98443.16
2023-04-22T14:51:23.307Z,98430.81
2023-04-22T14:54:10.376Z,98416.28
2023-04-22T14:56:58.754Z,98421.25
2023-04-22T14:59:46.347Z,98414.84
2023-04-22T15:02:33.631Z,98421.91
2023-04-22T15:05:22.456Z,98422.09
2023-04-22T15:08:09.640Z,98414.06
2023-04-22T15:10:56.989Z,98414.94
2023-04-22T15:13:44.156Z,98402.06
2023-04-22T15:16:31.469Z,98401.63
2023-04-22T15:19:18.706Z,98409.88
2023-04-22T15:22:05.806Z,98402.06
2023-04-22T15:24:52.934Z,98414.09
2023-04-22T15:27:40.133Z,98399.19
2023-04-22T15:30:27.222Z,98409.41
2023-04-22T15:33:14.350Z,98402.75
2023-04-22T15:36:04.216Z,98403.84
2023-04-22T15:38:58.677Z,98407.66
2023-04-22T15:41:46.121Z,98397.19
2023-04-22T15:44:33.185Z,98408.91
2023-04-22T15:47:20.295Z,98401.81
2023-04-22T15:50:09.600Z,98407.75
2023-04-22T15:52:56.789Z,98406.47
2023-04-22T15:55:43.790Z,98400.88
2023-04-22T15:58:34.465Z,98407.56
2023-04-22T16:01:21.967Z,98385.44
2023-04-22T16:04:09.312Z,98402.38
2023-04-22T16:06:57.514Z,98396.84
2023-04-22T16:09:44.609Z,98388.28
2023-04-22T16:12:33.921Z,98392.38
2023-04-22T16:15:23.717Z,98402.00
2023-04-22T16:18:11.069Z,98391.75
2023-04-22T16:20:59.996Z,98394.53
2023-04-22T16:23:48.639Z,98381.53
2023-04-22T16:26:35.789Z,98377.28
2023-04-22T16:29:22.974Z,98379.78
2023-04-22T16:32:10.388Z,98375.09
2023-04-22T16:34:57.492Z,98376.97
2023-04-22T16:37:44.842Z,98372.00
2023-04-22T16:40:31.976Z,98373.13
2023-04-22T16:43:19.045Z,98375.41
2023-04-22T16:46:06.173Z,98380.31
2023-04-22T16:48:53.781Z,98374.00
2023-04-22T16:51:40.939Z,98370.28
2023-04-22T16:54:28.121Z,98369.06
2023-04-22T16:57:15.183Z,98379.31
2023-04-22T17:00:02.266Z,98368.75
2023-04-22T17:02:49.482Z,98375.75
2023-04-22T17:05:36.621Z,98374.31
2023-04-22T17:08:23.655Z,98376.41
2023-04-22T17:11:12.048Z,98382.34
2023-04-22T17:13:59.271Z,98375.06
2023-04-22T17:16:46.555Z,98370.50
2023-04-22T17:19:33.867Z,98375.59
2023-04-22T17:22:21.006Z,98377.94
2023-04-22T17:25:08.586Z,98376.91
2023-04-22T17:27:55.847Z,98379.28
2023-04-22T17:30:43.006Z,98372.88
2023-04-22T17:33:30.397Z,98384.94
2023-04-22T17:36:19.916Z,98385.31
2023-04-22T17:39:07.235Z,98388.56
2023-04-22T17:41:54.268Z,98380.03
2023-04-22T17:44:41.583Z,98387.81
2023-04-22T17:47:29.792Z,98387.00
2023-04-22T17:50:17.201Z,98387.50
2023-04-22T17:53:04.380Z,98386.00
2023-04-22T17:55:51.531Z,98385.00
2023-04-22T17:58:39.006Z,98389.19
2023-04-22T18:01:29.367Z,98390.63
2023-04-22T18:04:16.564Z,98382.75
2023-04-22T18:07:04.048Z,98393.41
2023-04-22T18:09:51.293Z,98399.88
2023-04-22T18:12:39.377Z,98386.31
2023-04-22T18:15:26.465Z,98395.06
2023-04-22T18:18:16.192Z,98403.72
2023-04-22T18:21:03.290Z,98404.09
2023-04-22T18:23:51.173Z,98403.66
2023-04-22T18:26:38.490Z,98404.63
2023-04-22T18:29:26.232Z,98406.84
2023-04-22T18:32:14.112Z,98404.88
2023-04-22T18:35:01.591Z,98404.03
2023-04-22T18:37:49.129Z,98411.72
2023-04-22T18:40:36.437Z,98407.97
2023-04-22T18:43:23.600Z,98408.31
2023-04-22T18:46:11.040Z,98409.34
2023-04-22T18:48:58.436Z,98406.00
2023-04-22T18:51:47.854Z,98422.78
2023-04-22T18:54:34.900Z,98426.78
2023-04-22T18:57:21.965Z,98429.34
2023-04-22T19:00:09.902Z,98418.41
2023-04-22T19:02:57.189Z,98428.16
2023-04-22T19:05:44.623Z,98431.22
2023-04-22T19:08:32.077Z,98428.81
2023-04-22T19:11:19.478Z,98434.09
2023-04-22T19:14:06.650Z,98430.84
2023-04-22T19:16:54.162Z,98436.38
2023-04-22T19:19:41.640Z,98436.19
2023-04-22T19:22:29.700Z,98420.38
2023-04-22T19:25:18.894Z,98432.09
2023-04-22T19:28:06.413Z,98429.78
2023-04-22T19:30:53.930Z,98425.19
2023-04-22T19:33:41.453Z,98432.84
2023-04-22T19:36:28.976Z,98425.50
2023-04-22T19:39:19.513Z,98424.50
2023-04-22T19:42:06.804Z,98429.06
2023-04-22T19:44:55.302Z,98415.88
2023-04-22T19:47:42.982Z,98430.28
2023-04-22T19:50:30.645Z,98426.00
2023-04-22T19:53:19.462Z,98408.41
2023-04-22T19:56:08.574Z,98429.59
2023-04-22T19:58:56.312Z,98426.81
2023-04-22T20:01:43.603Z,98423.84
2023-04-22T20:04:32.810Z,98418.81
2023-04-22T20:07:20.363Z,98421.03
2023-04-22T20:10:09.959Z,98424.94
2023-04-22T20:12:57.395Z,98432.09
2023-04-22T20:15:45.234Z,98434.25
2023-04-22T20:18:32.841Z,98422.22
2023-04-22T20:21:20.417Z,98432.03
2023-04-22T20:24:09.580Z,98427.53
2023-04-22T20:26:57.302Z,98418.44
2023-04-22T20:29:44.973Z,98444.59
2023-04-22T20:32:32.283Z,98432.88
2023-04-22T20:35:20.201Z,98433.25
2023-04-22T20:38:08.999Z,98441.69
2023-04-22T20:40:56.662Z,98432.78
2023-04-22T20:43:44.137Z,98435.97
2023-04-22T20:46:31.386Z,98427.75
2023-04-22T20:49:18.801Z,98429.31
2023-04-22T20:52:07.171Z,98428.50
2023-04-22T20:54:57.139Z,98432.56
2023-04-22T20:57:44.193Z,98438.91
2023-04-22T21:00:31.634Z,98435.38
2023-04-22T21:03:19.255Z,98425.06
2023-04-22T21:06:07.011Z,98426.91
2023-04-22T21:08:55.531Z,98441.03
2023-04-22T21:11:42.860Z,98441.38
2023-04-22T21:14:30.390Z,98443.56
2023-04-22T21:17:31.890Z,98444.53
2023-04-22T21:20:21.084Z,98453.44
2023-04-22T21:23:08.819Z,98433.97
2023-04-22T21:25:57.091Z,98446.41
2023-04-22T21:28:45.011Z,98457.84
2023-04-22T21:31:34.231Z,98451.28
2023-04-22T21:34:21.298Z,98458.66
2023-04-22T21:37:08.745Z,98464.22
2023-04-22T21:39:55.841Z,98468.59
2023-04-22T21:42:42.918Z,98466.56
2023-04-22T21:45:30.885Z,98470.75
2023-04-22T21:48:17.925Z,98464.88
2023-04-22T21:51:05.220Z,98465.53
2023-04-22T21:53:52.880Z,98466.38
2023-04-22T21:56:39.995Z,98464.88
2023-04-22T21:59:27.271Z,98459.50
2023-04-22T22:02:14.439Z,98452.78
2023-04-22T22:05:01.895Z,98461.16
2023-04-22T22:07:49.413Z,98462.00
2023-04-22T22:10:36.953Z,98458.31
2023-04-22T22:13:24.120Z,98454.09
2023-04-22T22:16:11.833Z,98451.78
2023-04-22T22:18:59.179Z,98443.66
2023-04-22T22:21:46.699Z,98468.81
2023-04-22T22:24:34.064Z,98455.25
2023-04-22T22:27:21.224Z,98464.28
2023-04-22T22:30:09.381Z,98460.44
2023-04-22T22:32:56.555Z,98453.38
2023-04-22T22:35:43.664Z,98464.47
2023-04-22T22:38:30.971Z,98464.78
2023-04-22T22:41:18.065Z,98472.81
2023-04-22T22:44:05.093Z,98473.59
2023-04-22T22:46:52.169Z,98469.22
2023-04-22T22:49:39.361Z,98467.38
2023-04-22T22:52:26.466Z,98471.38
2023-04-22T22:55:13.965Z,98463.72
2023-04-22T22:58:01.029Z,98452.78
2023-04-22T23:03:34.470Z,98464.47
2023-04-22T23:06:21.930Z,98470.19
2023-04-22T23:09:10.862Z,98463.75
2023-04-22T23:11:58.003Z,98470.72
2023-04-22T23:14:45.037Z,98470.19
2023-04-22T23:17:32.104Z,98463.47
2023-04-22T23:20:20.641Z,98466.78
2023-04-22T23:23:08.896Z,98462.84
2023-04-22T23:25:56.745Z,98472.19
2023-04-22T23:28:44.065Z,98470.94
2023-04-22T23:31:33.536Z,98471.41
2023-04-22T23:34:23.998Z,98471.56
2023-04-22T23:37:14.260Z,98467.22
2023-04-22T23:40:01.548Z,98463.28
2023-04-22T23:42:48.759Z,98459.25
2023-04-22T23:45:35.896Z,98462.31
2023-04-22T23:48:22.970Z,98455.03
2023-04-22T23:51:10.243Z,98460.69
2023-04-22T23:53:57.338Z,98473.19
2023-04-22T23:56:44.742Z,98452.53
2023-04-22T23:59:32.251Z,98458.69
